Time;durP1;ratioP1;P1;durP2;ratioP2;P2;SDS_P1;SDS_P2;PMS_P1;PMS_P2;Temp;Humidity;BMP_temperature;BMP_pressure;BME280_temperature;BME280_humidity;BME280_pressure;Samples;Min_cycle;Max_cycle;Signal;HPM_P1;HPM_P2
2023/04/10 00:01:49;;;;;;;;;;;;;;;9.23;71.14;102047.69;10456847;28;19925;-65
2023/04/10 00:06:51;;;;;;;;;;;;;;;9.35;71.22;102049.94;10437623;28;20039;-65
2023/04/10 00:11:53;;;;;;;;;;;;;;;9.22;71.75;102049.47;10455947;28;20382;-65
2023/04/10 00:16:55;;;;;;;;;;;;;;;9.30;70.44;102059.69;10455207;28;19925;-65
2023/04/10 00:21:58;;;;;;;;;;;;;;;9.10;71.90;102044.63;10438219;28;19968;-65
2023/04/10 00:27:00;;;;;;;;;;;;;;;8.74;74.29;102030.03;10456930;28;19932;-65
2023/04/10 00:32:02;;;;;;;;;;;;;;;8.71;74.28;102019.69;10455111;28;19968;-65
2023/04/10 00:37:05;;;;;;;;;;;;;;;8.84;74.10;102006.25;10455297;28;19971;-65
2023/04/10 00:42:08;;;;;;;;;;;;;;;8.72;73.86;102005.75;10455493;28;19932;-65
2023/04/10 00:47:11;;;;;;;;;;;;;;;8.83;74.25;102000.19;10454486;28;19974;-65
2023/04/10 00:52:13;;;;;;;;;;;;;;;8.67;74.11;101988.50;10463339;28;19974;-65
2023/04/10 00:57:16;;;;;;;;;;;;;;;8.65;75.21;101978.09;10442719;28;19925;-65
2023/04/10 01:02:19;;;;;;;;;;;;;;;8.43;75.27;101972.66;10462912;28;19932;-65
2023/04/10 01:07:40;;;;;;;;;;;;;;;8.54;75.39;101961.91;10461675;28;19932;-65
2023/04/10 01:12:48;;;;;;;;;;;;;;;8.60;73.90;101966.94;10459723;28;20342;-65
2023/04/10 01:17:59;;;;;;;;;;;;;;;8.65;73.63;101958.97;10459855;28;19978;-65
2023/04/10 01:23:20;;;;;;;;;;;;;;;8.36;75.08;101966.72;10462101;28;20016;-65
2023/04/10 01:28:41;;;;;;;;;;;;;;;8.34;76.47;101957.25;10460342;28;20356;-65
2023/04/10 01:33:46;;;;;;;;;;;;;;;8.15;76.50;101959.53;10460359;28;20330;-65
2023/04/10 01:38:48;;;;;;;;;;;;;;;8.47;74.64;101961.25;10459784;28;19924;-65
2023/04/10 01:43:51;;;;;;;;;;;;;;;8.28;75.13;101960.88;10461125;28;19925;-65
2023/04/10 01:48:53;;;;;;;;;;;;;;;8.34;75.63;101955.50;10442911;28;19933;-65
2023/04/10 01:53:55;;;;;;;;;;;;;;;8.30;75.43;101955.63;10442212;28;19925;-65
2023/04/10 01:58:58;;;;;;;;;;;;;;;8.22;75.29;101948.03;10458315;28;19925;-65
2023/04/10 02:04:00;;;;;;;;;;;;;;;8.22;75.84;101942.81;10460453;28;19931;-65
2023/04/10 02:09:21;;;;;;;;;;;;;;;8.23;75.31;101943.66;10441921;28;20300;-65
2023/04/10 02:14:24;;;;;;;;;;;;;;;8.22;75.07;101950.66;10458223;28;19974;-65
2023/04/10 02:19:26;;;;;;;;;;;;;;;8.12;74.80;101941.34;10440976;28;19994;-65
2023/04/10 02:24:28;;;;;;;;;;;;;;;8.05;74.34;101937.22;10442033;28;19978;-65
2023/04/10 02:29:31;;;;;;;;;;;;;;;8.03;76.35;101939.00;10440185;28;20364;-65
2023/04/10 02:34:33;;;;;;;;;;;;;;;7.92;75.97;101928.91;10457701;28;19933;-65
2023/04/10 02:39:36;;;;;;;;;;;;;;;7.88;76.15;101924.66;10458470;28;20398;-65
2023/04/10 02:44:40;;;;;;;;;;;;;;;7.91;75.59;101924.56;10457763;28;19931;-65
2023/04/10 02:49:43;;;;;;;;;;;;;;;7.91;75.37;101920.19;10457318;28;19936;-65
2023/04/10 02:54:45;;;;;;;;;;;;;;;7.99;76.32;101910.41;10456230;28;19948;-65
2023/04/10 02:59:50;;;;;;;;;;;;;;;7.89;76.58;101910.72;10458362;28;19925;-65
2023/04/10 03:04:53;;;;;;;;;;;;;;;7.98;75.83;101908.72;10458161;28;19924;-65
2023/04/10 03:09:55;;;;;;;;;;;;;;;7.72;76.24;101909.44;10455871;28;19924;-65
2023/04/10 03:14:57;;;;;;;;;;;;;;;7.73;76.28;101912.91;10455593;28;20441;-65
2023/04/10 03:19:59;;;;;;;;;;;;;;;7.78;76.38;101917.09;10457730;28;19929;-65
2023/04/10 03:25:02;;;;;;;;;;;;;;;7.87;75.32;101910.78;10457071;28;19971;-65
2023/04/10 03:30:04;;;;;;;;;;;;;;;7.76;75.71;101915.44;10455967;28;19951;-65
2023/04/10 03:35:06;;;;;;;;;;;;;;;7.77;75.78;101918.00;10454438;28;19971;-65
2023/04/10 03:40:09;;;;;;;;;;;;;;;7.77;75.78;101904.94;10437843;28;19932;-65
2023/04/10 03:45:11;;;;;;;;;;;;;;;7.55;76.60;101903.84;10439258;28;19925;-65
2023/04/10 03:50:14;;;;;;;;;;;;;;;7.85;74.34;101902.16;10457059;28;19928;-65
2023/04/10 03:55:19;;;;;;;;;;;;;;;7.66;75.29;101893.97;10455300;28;19928;-65
2023/04/10 04:00:23;;;;;;;;;;;;;;;7.88;75.08;101886.38;10456922;28;19925;-65
2023/04/10 04:05:25;;;;;;;;;;;;;;;7.65;75.72;101878.38;10456036;28;19932;-65
2023/04/10 04:10:28;;;;;;;;;;;;;;;7.67;75.91;101881.81;10455802;28;19928;-65
2023/04/10 04:15:30;;;;;;;;;;;;;;;7.58;75.70;101883.75;10437378;28;19925;-65
2023/04/10 04:20:32;;;;;;;;;;;;;;;7.54;75.68;101876.06;10456389;28;19928;-65
2023/04/10 04:25:34;;;;;;;;;;;;;;;7.47;76.24;101872.78;10461893;28;19982;-65
2023/04/10 04:30:36;;;;;;;;;;;;;;;7.50;76.41;101867.47;10463233;28;19925;-65
2023/04/10 04:35:39;;;;;;;;;;;;;;;7.51;76.63;101868.31;10462484;28;19925;-65
2023/04/10 04:40:41;;;;;;;;;;;;;;;7.57;76.45;101865.56;10463796;28;19924;-65
2023/04/10 04:45:44;;;;;;;;;;;;;;;7.59;75.44;101867.22;10462043;28;19999;-65
2023/04/10 04:50:46;;;;;;;;;;;;;;;7.51;75.44;101858.75;10463340;28;19975;-65
2023/04/10 04:55:48;;;;;;;;;;;;;;;7.58;75.50;101856.81;10461133;28;19928;-65
2023/04/10 05:00:51;;;;;;;;;;;;;;;7.71;75.13;101863.41;10461817;28;20288;-65
2023/04/10 05:05:53;;;;;;;;;;;;;;;7.31;77.21;101854.06;10462256;28;20003;-65
2023/04/10 05:10:55;;;;;;;;;;;;;;;7.49;77.16;101847.53;10444973;28;19925;-65
2023/04/10 05:15:58;;;;;;;;;;;;;;;7.54;75.70;101834.38;10460029;28;20383;-65
2023/04/10 05:21:00;;;;;;;;;;;;;;;7.61;74.27;101833.28;10462283;28;19947;-65
2023/04/10 05:26:02;;;;;;;;;;;;;;;7.83;74.12;101836.13;10461464;28;19970;-65
2023/04/10 05:31:05;;;;;;;;;;;;;;;7.94;73.96;101828.84;10461209;28;19955;-65
2023/04/10 05:36:07;;;;;;;;;;;;;;;7.97;73.62;101831.38;10458526;28;20367;-65
2023/04/10 05:41:09;;;;;;;;;;;;;;;7.90;74.51;101837.69;10460921;28;20452;-65
2023/04/10 05:46:12;;;;;;;;;;;;;;;7.84;74.56;101840.44;10459836;28;20307;-65
2023/04/10 05:51:14;;;;;;;;;;;;;;;7.99;73.89;101837.38;10461042;28;19929;-66
2023/04/10 05:56:17;;;;;;;;;;;;;;;8.13;72.29;101826.53;10459269;28;19933;-65
2023/04/10 06:01:19;;;;;;;;;;;;;;;8.04;72.23;101834.66;10460200;28;19931;-66
2023/04/10 06:06:23;;;;;;;;;;;;;;;8.40;72.20;101830.94;10459904;28;20323;-65
2023/04/10 06:11:25;;;;;;;;;;;;;;;8.55;71.51;101823.50;10460251;28;19933;-65
2023/04/10 06:16:27;;;;;;;;;;;;;;;8.84;71.63;101820.81;10457611;28;19928;-65
2023/04/10 06:21:29;;;;;;;;;;;;;;;8.71;70.80;101820.41;10459137;28;19925;-65
2023/04/10 06:26:32;;;;;;;;;;;;;;;8.99;71.46;101816.84;10459350;28;19971;-65
2023/04/10 06:31:34;;;;;;;;;;;;;;;9.42;69.43;101804.88;10441763;28;19925;-65
2023/04/10 06:36:36;;;;;;;;;;;;;;;9.24;69.23;101809.00;10457789;28;19932;-65
2023/04/10 06:41:38;;;;;;;;;;;;;;;9.51;69.08;101796.69;10458491;28;20382;-65
2023/04/10 06:46:41;;;;;;;;;;;;;;;9.45;70.17;101794.31;10456434;28;20372;-66
2023/04/10 06:51:44;;;;;;;;;;;;;;;9.65;68.94;101789.19;10456712;28;19929;-66
2023/04/10 06:56:46;;;;;;;;;;;;;;;9.78;68.76;101778.25;10434220;28;20334;-65
2023/04/10 07:01:49;;;;;;;;;;;;;;;10.05;69.18;101765.88;10457748;28;20375;-65
2023/04/10 07:06:51;;;;;;;;;;;;;;;10.56;66.66;101761.22;10457650;28;19925;-66
2023/04/10 07:11:53;;;;;;;;;;;;;;;10.31;66.74;101753.50;10456362;28;19925;-66
2023/04/10 07:16:55;;;;;;;;;;;;;;;10.54;67.23;101735.13;10456802;28;19929;-65
2023/04/10 07:21:58;;;;;;;;;;;;;;;10.69;66.39;101724.88;10456680;28;19979;-65
2023/04/10 07:27:00;;;;;;;;;;;;;;;11.20;65.52;101720.88;10456978;28;20279;-66
2023/04/10 07:32:03;;;;;;;;;;;;;;;10.82;65.80;101718.19;10454993;28;20369;-66
2023/04/10 07:37:05;;;;;;;;;;;;;;;10.80;65.25;101699.09;10455699;28;20422;-66
2023/04/10 07:42:08;;;;;;;;;;;;;;;10.97;64.99;101687.84;10456572;28;19925;-66
2023/04/10 07:47:11;;;;;;;;;;;;;;;11.23;65.01;101681.44;10456567;28;20343;-66
2023/04/10 07:52:13;;;;;;;;;;;;;;;11.69;64.17;101679.25;10456041;28;19979;-66
2023/04/10 07:57:15;;;;;;;;;;;;;;;11.98;63.68;101673.56;10457847;28;19929;-66
2023/04/10 08:02:18;;;;;;;;;;;;;;;11.80;62.11;101675.25;10464688;28;19928;-66
2023/04/10 08:07:21;;;;;;;;;;;;;;;12.34;63.32;101667.38;10464507;28;19946;-66
2023/04/10 08:12:23;;;;;;;;;;;;;;;12.85;60.28;101656.88;10462515;28;19924;-66
2023/04/10 08:17:25;;;;;;;;;;;;;;;13.35;58.77;101648.06;10444711;28;19928;-66
2023/04/10 08:22:28;;;;;;;;;;;;;;;13.27;58.70;101640.53;10462941;28;20307;-66
2023/04/10 08:27:30;;;;;;;;;;;;;;;13.70;57.14;101640.81;10446709;28;19929;-66
2023/04/10 08:32:32;;;;;;;;;;;;;;;14.01;56.47;101640.81;10462464;28;19925;-66
2023/04/10 08:37:35;;;;;;;;;;;;;;;14.36;56.68;101633.47;10462924;28;19929;-66
2023/04/10 08:42:38;;;;;;;;;;;;;;;13.83;56.66;101627.78;10462290;28;19929;-66
2023/04/10 08:47:40;;;;;;;;;;;;;;;13.43;57.90;101643.22;10419550;28;19925;-66
2023/04/10 08:52:42;;;;;;;;;;;;;;;14.02;57.11;101630.19;10418744;28;19925;-67
2023/04/10 08:57:45;;;;;;;;;;;;;;;14.15;55.38;101621.56;10421150;28;19929;-66
2023/04/10 09:02:56;;;;;;;;;;;;;;;14.62;55.65;101610.81;10420095;28;20320;-66
2023/04/10 09:07:59;;;;;;;;;;;;;;;15.11;55.46;101611.31;10420965;28;19928;-66
2023/04/10 09:13:01;;;;;;;;;;;;;;;15.80;53.83;101604.22;10417680;28;19951;-67
2023/04/10 09:18:04;;;;;;;;;;;;;;;14.73;53.54;101598.78;10420295;28;19932;-67
2023/04/10 09:23:21;;;;;;;;;;;;;;;14.09;54.62;101596.47;10420167;28;19925;-66
2023/04/10 09:28:23;;;;;;;;;;;;;;;15.39;53.70;101598.06;10420829;28;19929;-67
2023/04/10 09:33:26;;;;;;;;;;;;;;;14.95;53.63;101593.00;10418676;28;19977;-67
2023/04/10 09:38:29;;;;;;;;;;;;;;;15.67;52.86;101585.69;10418270;28;19925;-66
2023/04/10 09:43:31;;;;;;;;;;;;;;;14.85;53.22;101559.31;10417402;28;20365;-67
2023/04/10 09:48:33;;;;;;;;;;;;;;;14.60;54.32;101545.97;10459395;28;19925;-67
2023/04/10 09:53:47;;;;;;;;;;;;;;;15.44;55.71;101533.59;10460225;28;19928;-67
2023/04/10 09:58:49;;;;;;;;;;;;;;;14.79;55.26;101525.44;10448721;22;19932;-68
2023/04/10 10:03:52;;;;;;;;;;;;;;;14.84;53.85;101515.44;10458999;28;20338;-68
2023/04/10 10:08:54;;;;;;;;;;;;;;;15.00;54.19;101503.91;10458652;28;19924;-69
2023/04/10 10:13:57;;;;;;;;;;;;;;;14.86;54.96;101503.00;10456125;28;19974;-69
2023/04/10 10:19:02;;;;;;;;;;;;;;;15.03;55.12;101480.81;10458569;28;20380;-68
2023/04/10 10:24:08;;;;;;;;;;;;;;;15.17;54.01;101481.69;10458303;28;19924;-68
2023/04/10 10:29:10;;;;;;;;;;;;;;;15.74;53.31;101472.63;10441466;28;19925;-69
2023/04/10 10:34:13;;;;;;;;;;;;;;;15.49;53.06;101455.81;10459511;28;20324;-68
2023/04/10 10:39:40;;;;;;;;;;;;;;;16.19;53.69;101454.56;10457620;28;19929;-69
2023/04/10 10:44:56;;;;;;;;;;;;;;;16.15;53.46;101445.13;10459024;28;19924;-69
2023/04/10 10:50:00;;;;;;;;;;;;;;;16.70;51.83;101419.19;10457646;28;20436;-69
2023/04/10 10:55:35;;;;;;;;;;;;;;;16.23;51.78;101421.66;10456262;28;19924;-69
2023/04/10 11:00:50;;;;;;;;;;;;;;;16.92;51.41;101393.84;10456167;28;20134;-69
2023/04/10 11:05:57;;;;;;;;;;;;;;;17.85;51.77;101406.13;10458247;28;19925;-69
2023/04/10 11:11:06;;;;;;;;;;;;;;;17.08;51.03;101403.16;10457250;28;20398;-69
2023/04/10 11:16:09;;;;;;;;;;;;;;;16.88;50.90;101395.88;10455284;28;20027;-69
2023/04/10 11:21:11;;;;;;;;;;;;;;;17.75;49.74;101379.53;10456077;28;19924;-69
2023/04/10 11:26:14;;;;;;;;;;;;;;;17.73;49.02;101369.06;10457127;28;20330;-69
2023/04/10 11:31:18;;;;;;;;;;;;;;;18.41;49.28;101373.44;10455272;28;19971;-67
2023/04/10 11:36:20;;;;;;;;;;;;;;;18.93;48.36;101340.00;10456481;28;19932;-69
2023/04/10 11:41:27;;;;;;;;;;;;;;;19.51;47.22;101333.31;10456142;28;19928;-69
2023/04/10 11:46:29;;;;;;;;;;;;;;;18.69;46.81;101329.59;10456616;28;19924;-69
2023/04/10 11:51:32;;;;;;;;;;;;;;;19.36;47.83;101306.28;10455347;28;19968;-69
2023/04/10 11:56:35;;;;;;;;;;;;;;;19.91;45.37;101314.75;10455346;28;19987;-69
2023/04/10 12:01:37;;;;;;;;;;;;;;;18.26;47.30;101315.44;10455230;28;20592;-70
2023/04/10 12:06:46;;;;;;;;;;;;;;;18.55;49.25;101314.81;10415788;28;19932;-69
2023/04/10 12:11:55;;;;;;;;;;;;;;;20.09;44.16;101311.41;10431293;28;19925;-69
2023/04/10 12:16:58;;;;;;;;;;;;;;;20.08;45.53;101291.97;10450346;28;20295;-69
2023/04/10 12:22:03;;;;;;;;;;;;;;;20.02;45.59;101287.19;10455384;28;19970;-69
2023/04/10 12:27:05;;;;;;;;;;;;;;;18.75;46.73;101290.13;10451207;28;19925;-69
2023/04/10 12:32:08;;;;;;;;;;;;;;;19.33;45.54;101270.22;10454652;28;19965;-69
2023/04/10 12:37:10;;;;;;;;;;;;;;;19.64;45.13;101275.50;10453229;28;19925;-69
2023/04/10 12:42:12;;;;;;;;;;;;;;;19.35;45.08;101268.28;10453224;28;19978;-69
2023/04/10 12:47:15;;;;;;;;;;;;;;;19.07;46.43;101240.63;10455494;28;19979;-69
2023/04/10 12:52:23;;;;;;;;;;;;;;;19.12;46.04;101243.72;10463474;28;19970;-69
2023/04/10 12:57:26;;;;;;;;;;;;;;;18.44;47.84;101238.00;10463337;28;19929;-69
2023/04/10 13:02:28;;;;;;;;;;;;;;;18.23;47.45;101222.09;10459191;28;19928;-69
2023/04/10 13:07:31;;;;;;;;;;;;;;;17.63;48.99;101218.03;10462103;28;20350;-69
2023/04/10 13:12:37;;;;;;;;;;;;;;;17.39;48.08;101220.81;10460436;28;19933;-69
2023/04/10 13:17:40;;;;;;;;;;;;;;;17.48;48.58;101205.19;10460391;28;19963;-69
2023/04/10 13:22:43;;;;;;;;;;;;;;;17.01;48.95;101192.97;10461727;28;19978;-69
2023/04/10 13:27:45;;;;;;;;;;;;;;;17.06;49.37;101182.84;10457991;28;19933;-69
2023/04/10 13:32:48;;;;;;;;;;;;;;;17.05;49.70;101167.09;10460867;28;19932;-69
2023/04/10 13:37:52;;;;;;;;;;;;;;;16.81;50.73;101151.31;10460094;28;20391;-69
2023/04/10 13:42:55;;;;;;;;;;;;;;;16.52;50.17;101131.50;10496784;28;19924;-69
2023/04/10 13:47:57;;;;;;;;;;;;;;;16.76;50.71;101124.38;10479501;28;19975;-69
2023/04/10 13:52:59;;;;;;;;;;;;;;;16.44;51.34;101109.22;10458457;28;19925;-69
2023/04/10 13:58:02;;;;;;;;;;;;;;;16.31;50.92;101089.06;10458752;28;19971;-69
2023/04/10 14:03:04;;;;;;;;;;;;;;;16.59;50.63;101081.59;10459142;28;20375;-69
2023/04/10 14:08:10;;;;;;;;;;;;;;;16.95;50.70;101063.00;10458637;28;19925;-69
2023/04/10 14:13:12;;;;;;;;;;;;;;;17.12;51.87;101051.91;10460251;28;19932;-69
2023/04/10 14:18:17;;;;;;;;;;;;;;;16.67;51.17;101057.22;10460190;28;19939;-69
2023/04/10 14:23:21;;;;;;;;;;;;;;;17.07;49.20;101030.25;10459186;28;19924;-69
2023/04/10 14:28:23;;;;;;;;;;;;;;;17.12;50.88;101035.19;10457770;28;19925;-69
2023/04/10 14:33:25;;;;;;;;;;;;;;;16.88;50.71;101021.19;10457912;28;19932;-69
2023/04/10 14:38:27;;;;;;;;;;;;;;;16.88;51.11;101017.69;10458808;28;20016;-69
2023/04/10 14:43:30;;;;;;;;;;;;;;;17.06;51.16;101005.63;10457863;28;19925;-69
2023/04/10 14:48:32;;;;;;;;;;;;;;;17.16;52.67;101004.88;10457587;28;20338;-69
2023/04/10 14:53:34;;;;;;;;;;;;;;;16.79;52.18;101013.09;10458141;28;20384;-69
2023/04/10 14:58:37;;;;;;;;;;;;;;;16.82;52.83;101010.22;10456776;28;19925;-68
2023/04/10 15:03:39;;;;;;;;;;;;;;;16.22;55.32;101002.56;10456911;28;20303;-69
2023/04/10 15:08:41;;;;;;;;;;;;;;;16.20;56.59;100998.38;10456720;28;19951;-69
2023/04/10 15:13:46;;;;;;;;;;;;;;;15.86;59.87;100999.19;10457484;28;19975;-69
2023/04/10 15:18:49;;;;;;;;;;;;;;;15.31;65.43;101009.41;10454980;28;19925;-69
2023/04/10 15:23:51;;;;;;;;;;;;;;;14.71;69.22;101037.50;10455604;28;19925;-68
2023/04/10 15:28:53;;;;;;;;;;;;;;;14.63;67.23;101019.59;10456168;28;19928;-68
2023/04/10 15:33:57;;;;;;;;;;;;;;;14.17;77.64;100992.97;10456861;28;20213;-68
2023/04/10 15:39:02;;;;;;;;;;;;;;;14.66;72.17;100984.28;10455964;28;19928;-69
2023/04/10 15:44:04;;;;;;;;;;;;;;;13.91;77.70;100988.53;10454615;28;19928;-69
2023/04/10 15:49:07;;;;;;;;;;;;;;;13.62;80.64;100982.63;10453406;28;20433;-69
2023/04/10 15:54:09;;;;;;;;;;;;;;;13.66;84.65;100952.53;10455877;28;20287;-69
2023/04/10 15:59:12;;;;;;;;;;;;;;;13.36;86.55;100944.91;10456378;28;19928;-69
2023/04/10 16:04:14;;;;;;;;;;;;;;;13.57;85.85;100927.69;10456025;28;19924;-69
2023/04/10 16:09:17;;;;;;;;;;;;;;;13.27;86.21;100904.28;10454952;28;19925;-69
2023/04/10 16:14:22;;;;;;;;;;;;;;;13.18;88.32;100889.13;10453528;28;19925;-69
2023/04/10 16:19:24;;;;;;;;;;;;;;;13.21;84.48;100888.91;10458151;28;19929;-69
2023/04/10 16:24:26;;;;;;;;;;;;;;;13.41;86.89;100881.50;10463953;28;19936;-69
2023/04/10 16:29:29;;;;;;;;;;;;;;;13.63;85.61;100863.28;10460010;28;19994;-69
2023/04/10 16:34:31;;;;;;;;;;;;;;;13.46;82.84;100845.22;10463852;28;19924;-69
2023/04/10 16:39:33;;;;;;;;;;;;;;;13.25;81.39;100842.25;10462608;28;19929;-69
2023/04/10 16:44:35;;;;;;;;;;;;;;;13.27;81.00;100843.81;10462781;28;19925;-69
2023/04/10 16:49:39;;;;;;;;;;;;;;;13.54;77.61;100848.97;10460811;28;19933;-69
2023/04/10 16:54:41;;;;;;;;;;;;;;;13.37;80.15;100852.78;10461894;28;19925;-69
2023/04/10 16:59:43;;;;;;;;;;;;;;;13.46;79.26;100838.16;10458697;28;19925;-69
2023/04/10 17:04:45;;;;;;;;;;;;;;;13.27;81.49;100848.22;10462532;28;20433;-69
2023/04/10 17:09:48;;;;;;;;;;;;;;;13.43;76.72;100863.81;10461293;28;19929;-69
2023/04/10 17:14:50;;;;;;;;;;;;;;;13.28;79.28;100873.56;10462086;28;20292;-69
2023/04/10 17:19:53;;;;;;;;;;;;;;;13.25;79.86;100911.44;10458689;28;19994;-69
2023/04/10 17:24:55;;;;;;;;;;;;;;;12.67;91.14;100949.41;10462439;28;19925;-69
2023/04/10 17:29:57;;;;;;;;;;;;;;;12.16;100.00;100942.91;10460477;28;19928;-69
2023/04/10 17:35:00;;;;;;;;;;;;;;;11.86;100.00;100977.91;10461991;28;19932;-70
2023/04/10 17:40:02;;;;;;;;;;;;;;;12.49;100.00;100959.28;10461388;28;20368;-70
2023/04/10 17:45:04;;;;;;;;;;;;;;;12.01;100.00;100970.94;10459778;28;20470;-70
2023/04/10 17:50:07;;;;;;;;;;;;;;;11.76;100.00;100976.78;10459502;28;19932;-71
2023/04/10 17:55:09;;;;;;;;;;;;;;;12.19;100.00;100963.72;10461161;28;19929;-70
2023/04/10 18:00:14;;;;;;;;;;;;;;;12.08;100.00;100950.41;10460226;28;20367;-70
2023/04/10 18:05:16;;;;;;;;;;;;;;;12.12;100.00;100961.56;10459761;28;19924;-70
2023/04/10 18:10:18;;;;;;;;;;;;;;;11.70;100.00;100933.41;10459355;28;19931;-70
2023/04/10 18:15:21;;;;;;;;;;;;;;;12.00;100.00;100908.91;10459756;28;20379;-70
2023/04/10 18:20:23;;;;;;;;;;;;;;;11.89;100.00;100901.66;10458427;28;20407;-71
2023/04/10 18:25:25;;;;;;;;;;;;;;;12.12;100.00;100882.81;10458498;28;19932;-70
2023/04/10 18:30:28;;;;;;;;;;;;;;;12.00;100.00;100861.69;10458781;28;19929;-69
2023/04/10 18:35:30;;;;;;;;;;;;;;;11.74;100.00;100875.53;10461967;28;19925;-69
2023/04/10 18:40:34;;;;;;;;;;;;;;;11.81;100.00;100853.22;10481855;28;20387;-70
2023/04/10 18:45:36;;;;;;;;;;;;;;;11.87;100.00;100856.31;10500012;28;19925;-69
2023/04/10 18:50:38;;;;;;;;;;;;;;;11.85;100.00;100857.31;10469649;28;19990;-69
2023/04/10 18:55:46;;;;;;;;;;;;;;;11.81;100.00;100861.09;10457564;28;20295;-69
2023/04/10 19:00:49;;;;;;;;;;;;;;;11.47;100.00;100869.22;10456214;28;19928;-69
2023/04/10 19:05:51;;;;;;;;;;;;;;;11.73;100.00;100853.69;10457870;28;19925;-69
2023/04/10 19:10:53;;;;;;;;;;;;;;;11.69;100.00;100886.28;10454869;28;19925;-69
2023/04/10 19:15:55;;;;;;;;;;;;;;;11.47;100.00;100856.09;10456365;28;20376;-69
2023/04/10 19:20:58;;;;;;;;;;;;;;;11.32;100.00;100857.88;10458067;28;20004;-69
2023/04/10 19:26:00;;;;;;;;;;;;;;;11.45;100.00;100826.53;10456236;28;20322;-69
2023/04/10 19:31:03;;;;;;;;;;;;;;;11.66;100.00;100792.06;10456084;28;19998;-69
2023/04/10 19:36:05;;;;;;;;;;;;;;;11.41;100.00;100793.56;10455830;28;20342;-69
2023/04/10 19:41:13;;;;;;;;;;;;;;;11.39;100.00;100829.50;10457448;28;19924;-69
2023/04/10 19:46:16;;;;;;;;;;;;;;;11.29;100.00;100823.97;10455817;28;19925;-69
2023/04/10 19:51:18;;;;;;;;;;;;;;;11.36;100.00;100829.69;10455686;28;20423;-69
2023/04/10 19:56:20;;;;;;;;;;;;;;;11.44;100.00;100844.97;10463103;28;19932;-69
2023/04/10 20:01:22;;;;;;;;;;;;;;;11.12;100.00;100832.00;10464706;28;20362;-69
2023/04/10 20:06:26;;;;;;;;;;;;;;;11.09;100.00;100809.44;10464636;28;19971;-69
2023/04/10 20:11:29;;;;;;;;;;;;;;;11.05;100.00;100818.41;10462559;28;20273;-69
2023/04/10 20:16:31;;;;;;;;;;;;;;;10.93;100.00;100804.28;10463189;28;20322;-69
2023/04/10 20:21:34;;;;;;;;;;;;;;;11.03;100.00;100806.34;10461947;28;20330;-69
2023/04/10 20:26:36;;;;;;;;;;;;;;;10.92;100.00;100791.25;10434982;28;20387;-69
2023/04/10 20:31:38;;;;;;;;;;;;;;;11.04;100.00;100802.78;10462779;28;19928;-69
2023/04/10 20:36:41;;;;;;;;;;;;;;;10.87;100.00;100804.63;10462263;28;19939;-70
2023/04/10 20:41:43;;;;;;;;;;;;;;;10.69;100.00;100771.66;10463319;28;19924;-69
2023/04/10 20:46:45;;;;;;;;;;;;;;;10.83;100.00;100790.03;10463997;28;19936;-69
2023/04/10 20:51:47;;;;;;;;;;;;;;;10.99;100.00;100797.81;10460206;28;19983;-69
2023/04/10 20:56:49;;;;;;;;;;;;;;;10.89;100.00;100791.44;10462876;28;19970;-69
2023/04/10 21:01:52;;;;;;;;;;;;;;;10.74;100.00;100775.69;10462738;28;19924;-69
2023/04/10 21:06:54;;;;;;;;;;;;;;;10.64;100.00;100787.66;10462035;28;19925;-69
2023/04/10 21:11:56;;;;;;;;;;;;;;;10.91;100.00;100784.31;10460841;28;19929;-69
2023/04/10 21:16:59;;;;;;;;;;;;;;;10.87;100.00;100788.91;10461889;28;19928;-69
2023/04/10 21:22:01;;;;;;;;;;;;;;;10.50;100.00;100809.34;10461932;28;20299;-69
2023/04/10 21:27:04;;;;;;;;;;;;;;;10.89;100.00;100794.91;10460817;28;19932;-69
2023/04/10 21:32:06;;;;;;;;;;;;;;;10.89;100.00;100808.00;10460780;28;20281;-69
2023/04/10 21:37:08;;;;;;;;;;;;;;;10.92;100.00;100791.25;10459125;28;19928;-69
2023/04/10 21:42:11;;;;;;;;;;;;;;;10.80;100.00;100771.88;10461738;28;19924;-69
2023/04/10 21:47:13;;;;;;;;;;;;;;;10.87;100.00;100772.34;10460530;28;19971;-69
2023/04/10 21:52:15;;;;;;;;;;;;;;;10.76;100.00;100778.22;10461254;28;19928;-69
2023/04/10 21:57:17;;;;;;;;;;;;;;;10.53;100.00;100785.63;10459630;28;19929;-69
2023/04/10 22:02:20;;;;;;;;;;;;;;;10.44;100.00;100785.31;10460404;28;19924;-69
2023/04/10 22:07:22;;;;;;;;;;;;;;;10.58;100.00;100775.75;10460772;28;19931;-69
2023/04/10 22:12:24;;;;;;;;;;;;;;;10.49;100.00;100760.56;10459432;28;19951;-69
2023/04/10 22:17:26;;;;;;;;;;;;;;;10.43;100.00;100767.94;10471685;22;19950;-64
2023/04/10 22:22:28;;;;;;;;;;;;;;;10.59;100.00;100766.97;10459181;28;20268;-64
2023/04/10 22:27:31;;;;;;;;;;;;;;;10.39;100.00;100754.19;10459139;28;19924;-65
2023/04/10 22:32:33;;;;;;;;;;;;;;;10.38;100.00;100755.94;10475194;28;19924;-64
2023/04/10 22:37:35;;;;;;;;;;;;;;;10.45;100.00;100753.81;10459584;28;19932;-65
2023/04/10 22:42:38;;;;;;;;;;;;;;;10.67;100.00;100744.72;10458851;28;19932;-64
2023/04/10 22:47:40;;;;;;;;;;;;;;;10.75;100.00;100738.09;10458510;28;20397;-64
2023/04/10 22:52:42;;;;;;;;;;;;;;;10.74;100.00;100738.19;10473702;28;19932;-64
2023/04/10 22:57:48;;;;;;;;;;;;;;;10.62;100.00;100729.28;10474204;28;19931;-64
2023/04/10 23:02:50;;;;;;;;;;;;;;;10.52;100.00;100722.88;10459285;28;20012;-65
2023/04/10 23:07:53;;;;;;;;;;;;;;;10.52;100.00;100733.34;10480398;28;19930;-65
2023/04/10 23:12:55;;;;;;;;;;;;;;;10.43;100.00;100724.28;10493697;28;19978;-64
2023/04/10 23:17:57;;;;;;;;;;;;;;;10.47;100.00;100733.63;10456962;28;19978;-65
2023/04/10 23:22:59;;;;;;;;;;;;;;;10.27;100.00;100746.97;10457557;28;19956;-64
2023/04/10 23:28:02;;;;;;;;;;;;;;;10.29;100.00;100745.13;10456431;28;19928;-64
2023/04/10 23:33:04;;;;;;;;;;;;;;;10.28;100.00;100756.53;10457635;28;19971;-64
2023/04/10 23:38:06;;;;;;;;;;;;;;;10.28;100.00;100746.06;10457550;28;19978;-64
2023/04/10 23:43:09;;;;;;;;;;;;;;;10.22;100.00;100744.63;10439553;28;19979;-64
2023/04/10 23:48:11;;;;;;;;;;;;;;;10.29;100.00;100745.97;10458576;28;19925;-65
2023/04/10 23:53:13;;;;;;;;;;;;;;;10.32;100.00;100750.22;10456263;28;19925;-64
2023/04/10 23:58:15;;;;;;;;;;;;;;;10.30;100.00;100747.66;10456187;28;19975;-65
